Time;durP1;ratioP1;P1;durP2;ratioP2;P2;SDS_P1;SDS_P2;PMS_P1;PMS_P2;Temp;Humidity;BMP_temperature;BMP_pressure;BME280_temperature;BME280_humidity;BME280_pressure;Samples;Min_cycle;Max_cycle;Signal;HPM_P1;HPM_P2
2021/01/01 00:01:34;;;;;;;24.42;20.35;;;;;;;4.14;74.83;97654.31;4975337;28;20074;-68
2021/01/01 00:04:01;;;;;;;21.83;16.33;;;;;;;4.14;74.84;97651.69;4974226;28;20061;-64
2021/01/01 00:06:28;;;;;;;25.20;18.98;;;;;;;4.17;74.67;97657.38;4975215;28;20058;-64
2021/01/01 00:08:55;;;;;;;21.23;14.18;;;;;;;4.20;74.45;97662.25;4975623;28;20390;-64
2021/01/01 00:11:23;;;;;;;18.55;12.40;;;;;;;4.14;74.50;97656.91;4975196;28;20046;-64
2021/01/01 00:13:50;;;;;;;15.07;10.73;;;;;;;4.13;74.52;97653.50;4975321;28;20043;-65
2021/01/01 00:16:17;;;;;;;14.07;11.75;;;;;;;4.20;74.51;97658.78;4975175;28;20077;-64
2021/01/01 00:18:44;;;;;;;15.05;12.45;;;;;;;4.23;74.30;97655.81;4975522;28;20051;-64
2021/01/01 00:21:11;;;;;;;19.48;14.10;;;;;;;4.16;74.21;97660.16;4975262;28;20050;-63
2021/01/01 00:23:38;;;;;;;12.07;9.32;;;;;;;4.08;74.32;97655.00;4975154;28;20445;-63
2021/01/01 00:26:11;;;;;;;12.45;9.88;;;;;;;4.14;74.41;97659.53;4974624;28;20047;-64
2021/01/01 00:28:42;;;;;;;10.23;8.60;;;;;;;4.16;74.40;97654.91;4974912;28;20047;-64
2021/01/01 00:31:13;;;;;;;10.63;8.40;;;;;;;4.19;74.17;97655.38;4975081;28;20436;-64
2021/01/01 00:33:40;;;;;;;10.38;7.85;;;;;;;4.17;74.17;97662.59;4974979;28;20050;-64
2021/01/01 00:36:09;;;;;;;9.23;7.75;;;;;;;4.17;73.93;97653.94;4974485;28;20046;-64
2021/01/01 00:38:36;;;;;;;8.85;7.05;;;;;;;4.14;73.90;97665.56;4974500;28;20046;-64
2021/01/01 00:41:07;;;;;;;11.13;7.35;;;;;;;4.06;73.94;97657.81;4974537;28;20074;-64
2021/01/01 00:43:34;;;;;;;9.43;7.03;;;;;;;4.03;73.92;97666.00;4974676;28;20730;-64
2021/01/01 00:46:00;;;;;;;8.35;6.60;;;;;;;3.98;73.86;97663.13;4974279;28;20043;-64
2021/01/01 00:48:27;;;;;;;8.35;6.70;;;;;;;4.08;73.95;97668.91;4974617;28;20042;-65
2021/01/01 00:50:54;;;;;;;7.70;6.32;;;;;;;4.12;73.88;97664.94;4974626;28;20043;-65
2021/01/01 00:53:39;;;;;;;7.30;6.00;;;;;;;4.05;73.54;97663.22;4974649;28;20047;-65
2021/01/01 00:56:06;;;;;;;7.05;5.78;;;;;;;3.99;73.70;97669.97;4974035;28;20499;-65
2021/01/01 00:58:32;;;;;;;6.95;6.07;;;;;;;3.97;73.63;97669.34;4973098;28;20054;-65
2021/01/01 01:00:59;;;;;;;7.00;6.18;;;;;;;4.04;73.63;97669.44;4974142;28;20043;-65
2021/01/01 01:03:25;;;;;;;6.97;6.03;;;;;;;4.10;73.75;97671.34;4974226;28;20053;-64
2021/01/01 01:05:52;;;;;;;7.97;5.95;;;;;;;4.13;73.43;97671.00;4973846;28;20058;-64
2021/01/01 01:08:19;;;;;;;8.90;6.40;;;;;;;4.11;73.68;97681.63;4974045;28;20043;-65
2021/01/01 01:10:46;;;;;;;8.20;6.00;;;;;;;4.14;73.44;97685.69;4973920;28;20043;-65
2021/01/01 01:13:13;;;;;;;6.82;5.78;;;;;;;4.11;73.40;97686.03;4973995;28;20049;-65
2021/01/01 01:15:40;;;;;;;7.40;5.75;;;;;;;4.01;73.29;97688.91;4973533;28;20043;-64
2021/01/01 01:18:06;;;;;;;6.47;5.28;;;;;;;4.00;73.49;97686.47;4972791;28;20066;-65
2021/01/01 01:20:33;;;;;;;6.22;5.13;;;;;;;3.96;73.57;97692.06;4973807;28;20481;-65
2021/01/01 01:23:00;;;;;;;8.98;6.68;;;;;;;3.85;73.84;97696.91;4973730;28;20125;-64
2021/01/01 01:25:27;;;;;;;11.10;7.45;;;;;;;3.72;74.19;97700.94;4972895;28;20051;-64
2021/01/01 01:27:54;;;;;;;9.50;7.70;;;;;;;3.71;74.40;97691.47;4973759;28;20058;-64
2021/01/01 01:30:22;;;;;;;9.43;7.47;;;;;;;3.61;74.45;97708.38;4973669;28;20042;-64
2021/01/01 01:32:49;;;;;;;9.05;7.15;;;;;;;3.58;74.71;97709.53;4973603;28;20047;-64
2021/01/01 01:35:15;;;;;;;14.27;8.45;;;;;;;3.58;74.71;97709.53;4973167;28;20043;-64
2021/01/01 01:37:42;;;;;;;12.35;9.15;;;;;;;3.59;74.84;97705.09;4973607;28;20415;-64
2021/01/01 01:40:09;;;;;;;12.20;8.45;;;;;;;3.53;74.88;97708.44;4973552;28;20382;-64
2021/01/01 01:42:36;;;;;;;12.80;8.43;;;;;;;3.55;74.76;97709.91;4973481;28;20054;-64
2021/01/01 01:45:05;;;;;;;13.85;9.80;;;;;;;3.49;74.95;97707.97;4973109;28;20050;-64
2021/01/01 01:47:33;;;;;;;14.60;9.73;;;;;;;3.47;75.03;97716.00;4973454;28;20061;-64
2021/01/01 01:50:00;;;;;;;13.35;8.95;;;;;;;3.48;75.02;97717.59;4973336;28;20049;-64
2021/01/01 01:52:27;;;;;;;12.70;8.43;;;;;;;3.41;74.79;97716.66;4972114;28;20519;-64
2021/01/01 01:54:54;;;;;;;14.48;9.32;;;;;;;3.42;75.03;97723.50;4973012;28;20146;-64
2021/01/01 01:57:24;;;;;;;13.38;8.50;;;;;;;3.52;75.13;97723.31;4973233;28;20043;-64
2021/01/01 01:59:55;;;;;;;12.30;7.72;;;;;;;3.54;74.81;97716.09;4973423;28;20053;-64
2021/01/01 02:02:23;;;;;;;10.50;7.40;;;;;;;3.66;74.71;97722.53;4973217;28;20046;-64
2021/01/01 02:04:50;;;;;;;8.50;6.75;;;;;;;3.60;74.33;97727.66;4972959;28;20058;-65
2021/01/01 02:07:16;;;;;;;10.10;6.72;;;;;;;3.54;74.62;97730.94;4973157;28;20050;-64
2021/01/01 02:09:44;;;;;;;8.70;6.30;;;;;;;3.61;74.86;97730.09;4973399;28;20053;-64
2021/01/01 02:12:12;;;;;;;10.02;6.53;;;;;;;3.58;74.68;97738.28;4973200;28;20062;-64
2021/01/01 02:14:39;;;;;;;9.07;6.15;;;;;;;3.55;74.69;97732.56;4972961;28;20046;-64
2021/01/01 02:17:06;;;;;;;7.65;5.45;;;;;;;3.56;74.63;97740.25;4973033;28;20062;-64
2021/01/01 02:19:34;;;;;;;7.90;5.35;;;;;;;3.51;74.38;97741.75;4973241;28;20043;-64
2021/01/01 02:22:03;;;;;;;9.23;5.30;;;;;;;3.54;74.43;97737.00;4973048;28;20043;-64
2021/01/01 02:24:31;;;;;;;7.32;5.18;;;;;;;3.52;74.49;97741.59;4972940;28;20089;-64
2021/01/01 02:26:57;;;;;;;8.80;5.97;;;;;;;3.54;74.45;97736.19;4971720;28;20054;-64
2021/01/01 02:29:24;;;;;;;6.95;5.38;;;;;;;3.58;74.40;97740.06;4973212;28;20047;-64
2021/01/01 02:31:51;;;;;;;6.70;5.30;;;;;;;3.63;74.36;97742.97;4973079;28;20049;-64
2021/01/01 02:34:17;;;;;;;7.15;5.47;;;;;;;3.59;74.23;97742.53;4972601;28;20046;-64
2021/01/01 02:36:44;;;;;;;7.45;4.90;;;;;;;3.55;74.37;97745.63;4972806;28;20043;-64
2021/01/01 02:39:11;;;;;;;7.65;5.45;;;;;;;3.43;74.33;97745.25;4976340;28;20085;-64
2021/01/01 02:41:39;;;;;;;7.63;5.00;;;;;;;3.43;74.44;97740.03;4976789;28;20097;-64
2021/01/01 02:44:05;;;;;;;5.65;4.40;;;;;;;3.39;74.70;97755.22;4976798;28;20056;-64
2021/01/01 02:46:32;;;;;;;6.13;4.43;;;;;;;3.41;74.46;97749.81;4976591;28;20043;-64
2021/01/01 02:48:59;;;;;;;7.22;4.25;;;;;;;3.42;74.36;97749.63;4975504;28;20046;-64
2021/01/01 02:51:25;;;;;;;7.00;4.70;;;;;;;3.40;74.57;97750.81;4976785;28;20047;-64
2021/01/01 02:53:52;;;;;;;6.75;4.65;;;;;;;3.41;74.49;97750.63;4976594;28;20051;-64
2021/01/01 02:56:19;;;;;;;6.13;4.65;;;;;;;3.42;74.50;97754.84;4976281;28;20049;-64
2021/01/01 02:58:46;;;;;;;5.97;4.15;;;;;;;3.45;74.68;97756.31;4976512;28;20073;-63
2021/01/01 03:01:13;;;;;;;5.57;4.15;;;;;;;3.37;74.52;97761.59;4976435;28;20053;-64
2021/01/01 03:03:39;;;;;;;5.45;4.00;;;;;;;3.38;74.70;97761.41;4976459;28;20050;-63
2021/01/01 03:06:06;;;;;;;5.28;4.15;;;;;;;3.32;74.68;97764.72;4976023;28;20055;-64
2021/01/01 03:08:33;;;;;;;5.70;4.57;;;;;;;3.33;74.84;97755.91;4976361;28;20070;-64
2021/01/01 03:11:00;;;;;;;7.47;4.82;;;;;;;3.30;74.84;97760.66;4976275;28;20046;-63
2021/01/01 03:13:26;;;;;;;6.55;4.72;;;;;;;3.29;74.92;97764.25;4976357;28;20058;-64
2021/01/01 03:15:54;;;;;;;5.90;4.40;;;;;;;3.31;74.96;97764.91;4975985;28;20054;-64
2021/01/01 03:18:27;;;;;;;5.90;4.22;;;;;;;3.22;75.09;97759.72;4976200;28;20512;-64
2021/01/01 03:20:54;;;;;;;6.40;4.70;;;;;;;3.23;75.21;97766.56;4976066;28;20047;-63
2021/01/01 03:23:21;;;;;;;6.90;4.75;;;;;;;3.25;75.44;97762.97;4976126;28;20049;-64
2021/01/01 03:25:48;;;;;;;5.50;4.32;;;;;;;3.25;75.11;97760.38;4975727;28;20058;-64
2021/01/01 03:28:15;;;;;;;6.50;4.93;;;;;;;3.31;75.31;97763.13;4976100;28;20043;-63
2021/01/01 03:30:42;;;;;;;6.65;5.00;;;;;;;3.28;75.11;97763.44;4974763;28;20043;-64
2021/01/01 03:33:10;;;;;;;7.68;4.82;;;;;;;3.22;75.30;97759.72;4974879;28;20057;-63
2021/01/01 03:35:36;;;;;;;5.97;4.80;;;;;;;3.21;75.44;97763.31;4975678;28;20054;-63
2021/01/01 03:38:03;;;;;;;6.28;4.82;;;;;;;3.15;75.48;97765.81;4976314;28;20122;-63
2021/01/01 03:40:30;;;;;;;7.75;5.32;;;;;;;3.16;75.63;97763.00;4976015;28;20532;-64
2021/01/01 03:42:57;;;;;;;7.72;5.57;;;;;;;3.20;75.71;97764.31;4975983;28;20522;-64
2021/01/01 03:45:24;;;;;;;7.00;5.13;;;;;;;3.15;75.51;97760.59;4975637;28;20121;-63
2021/01/01 03:47:51;;;;;;;7.32;5.50;;;;;;;3.17;75.70;97763.81;4975706;28;20125;-63
2021/01/01 03:50:19;;;;;;;6.53;4.93;;;;;;;3.30;75.76;97758.84;4975474;28;20043;-64
2021/01/01 03:52:46;;;;;;;6.22;5.32;;;;;;;3.32;75.34;97763.91;4975934;28;20133;-64
2021/01/01 03:55:13;;;;;;;7.45;6.10;;;;;;;3.29;75.44;97764.25;4975397;28;20054;-64
2021/01/01 03:57:40;;;;;;;9.20;6.35;;;;;;;3.24;75.46;97767.38;4975739;28;20417;-64
2021/01/01 04:00:08;;;;;;;7.95;6.63;;;;;;;3.27;75.32;97769.66;4975789;28;20493;-64
2021/01/01 04:02:40;;;;;;;8.57;6.28;;;;;;;3.26;75.32;97770.63;4976468;28;20071;-64
2021/01/01 04:05:08;;;;;;;7.30;5.40;;;;;;;3.30;75.53;97774.53;4975567;28;20485;-64
2021/01/01 04:07:36;;;;;;;8.98;6.75;;;;;;;3.33;75.56;97761.13;4975588;28;20485;-64
2021/01/01 04:10:03;;;;;;;9.40;6.47;;;;;;;3.27;75.41;97763.63;4975503;28;20051;-64
2021/01/01 04:12:31;;;;;;;8.02;6.15;;;;;;;3.29;75.42;97767.69;4975352;28;20058;-64
2021/01/01 04:14:57;;;;;;;9.98;6.93;;;;;;;3.32;75.37;97775.19;4973656;28;20050;-64
2021/01/01 04:17:24;;;;;;;9.70;7.30;;;;;;;3.33;75.41;97774.19;4973935;28;20425;-64
2021/01/01 04:19:51;;;;;;;10.00;7.47;;;;;;;3.32;75.41;97779.59;4975219;28;20044;-64
2021/01/01 04:22:17;;;;;;;10.70;7.90;;;;;;;3.40;75.23;97771.72;4975093;28;20046;-64
2021/01/01 04:24:45;;;;;;;11.73;7.85;;;;;;;3.38;75.15;97777.09;4974895;28;20054;-64
2021/01/01 04:27:13;;;;;;;10.80;7.65;;;;;;;3.33;74.97;97776.81;4975089;28;20078;-64
2021/01/01 04:29:40;;;;;;;10.32;7.70;;;;;;;3.40;75.44;97777.75;4975243;28;20423;-63
2021/01/01 04:32:07;;;;;;;11.00;7.88;;;;;;;3.51;75.44;97780.94;4973799;28;20061;-64
2021/01/01 04:34:33;;;;;;;9.45;7.85;;;;;;;3.57;75.02;97777.66;4974912;28;20046;-64
2021/01/01 04:37:00;;;;;;;12.02;7.82;;;;;;;3.55;74.86;97777.84;4975087;28;20046;-64
2021/01/01 04:39:27;;;;;;;11.18;8.18;;;;;;;3.48;74.98;97782.94;4974991;28;20058;-64
2021/01/01 04:41:56;;;;;;;10.50;7.20;;;;;;;3.42;74.92;97782.78;4974805;28;20039;-64
2021/01/01 04:44:24;;;;;;;9.82;7.43;;;;;;;3.39;75.02;97778.75;4974230;28;20054;-64
2021/01/01 04:46:52;;;;;;;10.00;7.35;;;;;;;3.32;75.11;97787.44;4974700;28;20051;-64
2021/01/01 04:49:19;;;;;;;10.25;7.90;;;;;;;3.39;75.35;97783.97;4974637;28;20046;-64
2021/01/01 04:51:46;;;;;;;10.63;7.50;;;;;;;3.46;75.11;97789.31;4974594;28;20053;-64
2021/01/01 04:54:16;;;;;;;11.20;7.32;;;;;;;3.37;74.96;97785.13;4974247;28;20043;-64
2021/01/01 04:56:46;;;;;;;9.82;8.15;;;;;;;3.36;75.05;97788.72;4974638;28;20054;-64
2021/01/01 04:59:16;;;;;;;11.48;8.63;;;;;;;3.39;75.32;97793.59;4974408;28;20382;-64
2021/01/01 05:01:43;;;;;;;10.82;8.07;;;;;;;3.41;75.30;97789.81;4973689;28;20043;-65
2021/01/01 05:04:10;;;;;;;12.27;7.63;;;;;;;3.41;75.40;97794.22;4974237;28;20055;-64
2021/01/01 05:06:39;;;;;;;10.20;7.82;;;;;;;3.47;75.32;97799.59;4974265;28;20489;-65
2021/01/01 05:09:06;;;;;;;12.18;8.52;;;;;;;3.45;75.21;97805.97;4974311;28;20416;-65
2021/01/01 05:11:33;;;;;;;10.65;7.82;;;;;;;3.55;75.28;97803.13;4974294;28;20046;-64
2021/01/01 05:14:01;;;;;;;10.55;7.90;;;;;;;3.58;75.14;97798.38;4974245;28;20062;-65
2021/01/01 05:16:34;;;;;;;10.77;8.38;;;;;;;3.61;75.13;97803.25;4973934;28;20070;-65
2021/01/01 05:19:09;;;;;;;10.07;8.02;;;;;;;3.62;74.99;97799.66;4974178;28;20507;-65
2021/01/01 05:21:36;;;;;;;9.85;7.70;;;;;;;3.63;75.17;97803.91;4974245;28;20047;-65
2021/01/01 05:24:05;;;;;;;10.40;8.38;;;;;;;3.62;74.99;97801.47;4974157;28;20520;-64
2021/01/01 05:26:33;;;;;;;13.88;9.30;;;;;;;3.58;74.95;97792.34;4973901;28;20102;-64
2021/01/01 05:29:05;;;;;;;11.48;8.85;;;;;;;3.53;75.22;97800.69;4974047;28;20102;-64
2021/01/01 05:31:34;;;;;;;12.18;9.10;;;;;;;3.54;75.19;97801.50;4974531;28;20054;-63
2021/01/01 05:34:02;;;;;;;14.07;9.55;;;;;;;3.52;75.22;97806.09;4974465;28;20047;-64
2021/01/01 05:36:32;;;;;;;12.57;9.73;;;;;;;3.61;75.13;97813.72;4973503;28;20046;-65
2021/01/01 05:39:00;;;;;;;14.38;10.07;;;;;;;3.62;74.98;97809.31;4973876;28;20046;-64
2021/01/01 05:41:35;;;;;;;11.77;9.40;;;;;;;3.67;75.17;97820.88;4973900;28;20047;-64
2021/01/01 05:44:13;;;;;;;13.70;9.55;;;;;;;3.62;74.88;97817.94;4973690;28;20105;-64
2021/01/01 05:46:58;;;;;;;13.15;9.50;;;;;;;3.53;74.69;97818.19;4973652;28;20057;-65
2021/01/01 05:49:28;;;;;;;15.30;10.45;;;;;;;3.45;74.98;97824.25;4973636;28;20081;-64
2021/01/01 05:52:06;;;;;;;14.35;10.63;;;;;;;3.46;75.13;97820.66;4973664;28;20043;-65
2021/01/01 05:54:33;;;;;;;13.73;10.40;;;;;;;3.47;75.15;97820.50;4973222;28;20444;-64
2021/01/01 05:57:00;;;;;;;13.52;10.25;;;;;;;3.52;75.27;97830.44;4973658;28;20127;-64
2021/01/01 05:59:26;;;;;;;13.18;10.07;;;;;;;3.54;75.09;97838.09;4973516;28;20062;-63
2021/01/01 06:01:57;;;;;;;14.02;10.27;;;;;;;3.48;75.02;97843.03;4973308;28;20039;-64
2021/01/01 06:04:25;;;;;;;13.60;10.73;;;;;;;3.46;75.37;97847.59;4973238;28;20051;-64
2021/01/01 06:06:53;;;;;;;12.77;10.43;;;;;;;3.47;75.22;97838.78;4973493;28;20047;-64
2021/01/01 06:09:20;;;;;;;15.45;10.90;;;;;;;3.37;75.25;97851.22;4973522;28;20062;-64
2021/01/01 06:11:59;;;;;;;15.85;11.65;;;;;;;3.31;75.47;97858.97;4973811;28;20054;-64
2021/01/01 06:14:35;;;;;;;13.20;10.25;;;;;;;3.30;75.58;97857.31;4973863;28;20050;-64
2021/01/01 06:17:16;;;;;;;15.32;11.73;;;;;;;3.32;75.55;97865.81;4973571;28;20062;-64
2021/01/01 06:19:44;;;;;;;13.68;10.75;;;;;;;3.31;75.63;97866.78;4973342;28;20409;-65
2021/01/01 06:22:14;;;;;;;14.02;10.98;;;;;;;3.37;75.55;97872.13;4972074;28;20049;-63
2021/01/01 06:24:45;;;;;;;12.63;9.57;;;;;;;3.31;75.34;97878.06;4972943;28;20054;-64
2021/01/01 06:27:13;;;;;;;14.00;9.80;;;;;;;3.28;75.42;97882.78;4973197;28;20502;-64
2021/01/01 06:29:42;;;;;;;12.32;10.00;;;;;;;3.30;75.66;97883.44;4973236;28;20049;-64
2021/01/01 06:32:12;;;;;;;15.02;11.35;;;;;;;3.36;75.66;97882.75;4971902;28;20046;-64
2021/01/01 06:34:39;;;;;;;14.13;10.23;;;;;;;3.40;75.77;97879.66;4972842;28;20567;-64
2021/01/01 06:37:06;;;;;;;14.80;11.32;;;;;;;3.42;75.74;97882.06;4972992;28;20070;-63
2021/01/01 06:39:37;;;;;;;12.75;10.73;;;;;;;3.51;75.63;97891.53;4973170;28;20053;-64
2021/01/01 06:42:05;;;;;;;18.45;11.00;;;;;;;3.52;75.42;97893.16;4973227;28;20520;-64
2021/01/01 06:44:33;;;;;;;14.35;10.18;;;;;;;3.39;75.64;97903.34;4971542;28;20074;-64
2021/01/01 06:47:00;;;;;;;14.85;10.43;;;;;;;3.42;75.71;97900.38;4971622;28;20047;-64
2021/01/01 06:49:33;;;;;;;14.82;10.25;;;;;;;3.40;75.36;97899.72;4972916;28;20089;-64
2021/01/01 06:52:11;;;;;;;12.70;10.10;;;;;;;3.33;75.64;97907.41;4973174;28;20046;-64
2021/01/01 06:54:57;;;;;;;13.00;10.05;;;;;;;3.27;76.00;97912.53;4972837;28;20139;-64
2021/01/01 06:57:24;;;;;;;15.10;11.27;;;;;;;3.26;75.90;97918.69;4973082;28;20047;-64
2021/01/01 06:59:53;;;;;;;14.73;11.23;;;;;;;3.27;75.93;97918.56;4971676;28;20137;-64
2021/01/01 07:02:21;;;;;;;14.15;10.85;;;;;;;3.25;76.00;97920.50;4973200;28;20042;-64
2021/01/01 07:04:50;;;;;;;15.63;10.73;;;;;;;3.23;75.82;97922.47;4972860;28;20047;-63
2021/01/01 07:07:36;;;;;;;15.95;11.52;;;;;;;3.18;76.01;97924.75;4973077;28;20043;-63
2021/01/01 07:10:04;;;;;;;14.80;11.30;;;;;;;3.18;76.09;97928.22;4972999;28;20055;-63
2021/01/01 07:12:30;;;;;;;14.32;10.60;;;;;;;3.16;76.19;97931.97;4972978;28;20074;-63
2021/01/01 07:14:57;;;;;;;14.00;11.15;;;;;;;3.16;76.31;97934.56;4972622;28;20047;-62
2021/01/01 07:17:24;;;;;;;15.25;11.20;;;;;;;3.23;76.31;97938.97;4971781;28;20066;-63
2021/01/01 07:19:51;;;;;;;15.98;11.57;;;;;;;3.24;76.09;97945.00;4972799;28;20051;-62
2021/01/01 07:22:18;;;;;;;18.25;11.85;;;;;;;3.15;76.45;97946.00;4972968;28;20050;-63
2021/01/01 07:24:45;;;;;;;15.85;11.07;;;;;;;3.10;76.43;97951.72;4974866;28;20516;-63
2021/01/01 07:27:12;;;;;;;15.40;11.23;;;;;;;3.12;76.68;97941.91;4976207;28;20051;-63
2021/01/01 07:29:39;;;;;;;14.27;10.38;;;;;;;3.14;76.51;97957.41;4976228;28;20053;-63
2021/01/01 07:32:07;;;;;;;14.73;10.93;;;;;;;3.06;76.70;97958.25;4976447;28;20066;-63
2021/01/01 07:34:34;;;;;;;14.07;10.50;;;;;;;3.09;76.72;97957.09;4975800;28;20045;-63
2021/01/01 07:37:02;;;;;;;14.35;11.30;;;;;;;3.14;76.67;97960.03;4975944;28;20055;-63
2021/01/01 07:39:31;;;;;;;15.55;11.23;;;;;;;3.11;76.69;97963.81;4974933;28;20050;-63
2021/01/01 07:42:06;;;;;;;15.50;12.13;;;;;;;3.20;76.87;97968.03;4975882;28;20516;-63
2021/01/01 07:44:32;;;;;;;14.05;10.60;;;;;;;3.23;76.71;97966.88;4975624;28;20066;-63
2021/01/01 07:46:59;;;;;;;15.25;11.02;;;;;;;3.25;76.54;97971.94;4975871;28;20057;-62
2021/01/01 07:49:33;;;;;;;14.68;11.07;;;;;;;3.23;76.68;97972.91;4975946;28;20042;-63
2021/01/01 07:52:05;;;;;;;16.58;12.82;;;;;;;3.25;76.71;97974.53;4975766;28;20050;-63
2021/01/01 07:54:47;;;;;;;16.90;12.30;;;;;;;3.21;76.64;97974.06;4975580;28;20042;-63
2021/01/01 07:57:13;;;;;;;18.58;12.52;;;;;;;3.19;76.54;97978.66;4975693;28;20042;-62
2021/01/01 07:59:41;;;;;;;14.88;11.75;;;;;;;3.19;76.74;97978.66;4975668;28;20185;-64
2021/01/01 08:02:08;;;;;;;16.40;11.73;;;;;;;3.15;76.87;97987.78;4975580;28;20433;-64
2021/01/01 08:04:35;;;;;;;18.83;12.43;;;;;;;3.23;76.79;97988.59;4975488;28;20054;-64
2021/01/01 08:07:02;;;;;;;16.95;12.27;;;;;;;3.26;76.61;97986.63;4975465;28;20505;-64
2021/01/01 08:09:29;;;;;;;17.40;12.38;;;;;;;3.32;76.50;97999.84;4975593;28;20409;-63
2021/01/01 08:12:04;;;;;;;17.23;12.25;;;;;;;3.35;76.60;97999.50;4975325;28;20051;-63
2021/01/01 08:14:31;;;;;;;15.13;11.57;;;;;;;3.32;76.55;98005.06;4975104;28;20524;-64
2021/01/01 08:17:18;;;;;;;17.75;12.75;;;;;;;3.39;76.46;98000.00;4975443;28;20046;-64
2021/01/01 08:19:44;;;;;;;16.10;12.32;;;;;;;3.47;76.45;98000.78;4975540;28;20043;-63
2021/01/01 08:22:13;;;;;;;17.10;12.38;;;;;;;3.50;76.29;98002.25;4975152;28;20054;-63
2021/01/01 08:24:54;;;;;;;17.27;12.40;;;;;;;3.47;76.33;98000.00;4973681;28;20050;-64
2021/01/01 08:27:21;;;;;;;17.17;12.90;;;;;;;3.41;76.38;97996.22;4975385;28;20050;-63
2021/01/01 08:29:50;;;;;;;19.38;13.55;;;;;;;3.39;76.37;97998.19;4975165;28;20058;-63
2021/01/01 08:32:18;;;;;;;17.85;12.73;;;;;;;3.46;76.52;98000.94;4975312;28;20042;-63
2021/01/01 08:34:50;;;;;;;18.10;13.18;;;;;;;3.50;76.46;97997.00;4974745;28;20061;-63
2021/01/01 08:37:18;;;;;;;16.67;13.23;;;;;;;3.43;76.52;98003.91;4975205;28;20050;-62
2021/01/01 08:39:45;;;;;;;19.15;13.45;;;;;;;3.44;76.70;98008.97;4975024;28;20051;-63
2021/01/01 08:42:21;;;;;;;18.27;13.07;;;;;;;3.49;76.52;98008.47;4975027;28;20485;-65
2021/01/01 08:44:48;;;;;;;19.48;13.45;;;;;;;3.54;76.56;98015.78;4973574;28;20516;-64
2021/01/01 08:47:16;;;;;;;19.45;13.95;;;;;;;3.54;76.33;98006.16;4975078;28;20572;-63
2021/01/01 08:49:42;;;;;;;18.85;13.65;;;;;;;3.54;76.41;98011.38;4973490;28;20501;-63
2021/01/01 08:52:11;;;;;;;18.45;12.80;;;;;;;3.51;76.58;98019.56;4974873;28;20043;-63
2021/01/01 08:54:39;;;;;;;18.15;13.25;;;;;;;3.52;76.50;98023.81;4974613;28;20053;-63
2021/01/01 08:57:06;;;;;;;17.75;13.30;;;;;;;3.51;76.27;98026.56;4974546;28;20505;-63
2021/01/01 08:59:33;;;;;;;20.77;13.75;;;;;;;3.55;76.34;98023.50;4974758;28;20500;-64
2021/01/01 09:02:00;;;;;;;18.42;13.30;;;;;;;3.56;76.21;98026.91;4974473;28;20405;-63
2021/01/01 09:04:28;;;;;;;18.23;13.25;;;;;;;3.56;76.34;98027.72;4974414;28;20501;-63
2021/01/01 09:06:57;;;;;;;19.25;13.13;;;;;;;3.66;76.24;98032.75;4974462;28;20432;-64
2021/01/01 09:09:28;;;;;;;20.27;13.32;;;;;;;3.66;76.23;98033.56;4973819;28;20063;-64
2021/01/01 09:12:15;;;;;;;19.40;13.98;;;;;;;3.77;76.06;98037.63;4975112;28;20493;-63
2021/01/01 09:14:48;;;;;;;19.17;13.45;;;;;;;3.72;76.07;98045.16;4974392;28;20144;-63
2021/01/01 09:17:15;;;;;;;22.67;14.88;;;;;;;3.83;76.09;98046.59;4974199;28;20059;-65
2021/01/01 09:19:42;;;;;;;19.77;14.07;;;;;;;3.90;75.81;98045.75;4975098;28;20049;-64
2021/01/01 09:22:16;;;;;;;22.25;14.90;;;;;;;3.96;75.88;98044.28;4974982;28;20094;-64
2021/01/01 09:24:44;;;;;;;21.00;14.20;;;;;;;3.98;75.75;98044.91;4973796;28;20042;-64
2021/01/01 09:27:11;;;;;;;20.52;14.07;;;;;;;4.05;75.59;98043.25;4974158;28;20058;-64
2021/01/01 09:29:38;;;;;;;19.88;14.27;;;;;;;4.07;75.47;98053.53;4973853;28;20051;-63
2021/01/01 09:32:09;;;;;;;19.40;14.13;;;;;;;4.05;75.42;98058.16;4973938;28;20094;-63
2021/01/01 09:34:36;;;;;;;19.38;13.20;;;;;;;4.05;75.23;98056.34;4973770;28;20046;-63
2021/01/01 09:37:11;;;;;;;25.15;16.55;;;;;;;4.07;75.21;98064.81;4973871;28;20409;-63
2021/01/01 09:39:38;;;;;;;16.65;12.82;;;;;;;3.93;74.93;98058.50;4973936;28;20066;-64
2021/01/01 09:42:06;;;;;;;19.48;13.75;;;;;;;3.85;75.23;98065.56;4973660;28;20053;-64
2021/01/01 09:44:33;;;;;;;23.00;14.77;;;;;;;3.96;75.30;98062.59;4972201;28;20050;-63
2021/01/01 09:47:00;;;;;;;22.70;14.73;;;;;;;4.05;75.51;98069.41;4973195;28;20047;-64
2021/01/01 09:49:27;;;;;;;19.67;14.43;;;;;;;4.12;75.13;98072.16;4973661;28;20150;-63
2021/01/01 09:51:54;;;;;;;18.17;13.27;;;;;;;4.17;74.98;98070.69;4973775;28;20043;-63
2021/01/01 09:54:37;;;;;;;17.27;12.18;;;;;;;4.12;74.60;98077.38;4973442;28;20050;-64
2021/01/01 09:57:04;;;;;;;17.42;12.52;;;;;;;4.01;74.55;98075.97;4972098;28;20050;-63
2021/01/01 09:59:31;;;;;;;19.05;13.82;;;;;;;4.03;74.83;98084.44;4973532;28;20070;-62
2021/01/01 10:01:58;;;;;;;20.40;15.32;;;;;;;4.13;75.21;98084.28;4973362;28;20043;-62
2021/01/01 10:04:24;;;;;;;18.30;12.93;;;;;;;4.18;74.87;98080.16;4973233;28;20520;-63
2021/01/01 10:06:52;;;;;;;17.85;11.93;;;;;;;4.13;74.72;98085.09;4973236;28;20055;-62
2021/01/01 10:09:18;;;;;;;18.10;12.73;;;;;;;4.10;74.51;98077.56;4973278;28;20128;-63
2021/01/01 10:11:48;;;;;;;16.30;11.77;;;;;;;3.99;74.59;98080.53;4973389;28;20366;-63
2021/01/01 10:14:15;;;;;;;17.10;12.75;;;;;;;4.01;74.48;98081.19;4973193;28;20054;-63
2021/01/01 10:16:42;;;;;;;17.85;12.75;;;;;;;4.00;74.53;98079.56;4973222;28;20123;-65
2021/01/01 10:19:08;;;;;;;19.08;13.90;;;;;;;4.00;74.56;98082.19;4973436;28;20043;-63
2021/01/01 10:21:35;;;;;;;16.58;12.73;;;;;;;3.95;74.33;98092.31;4973175;28;20129;-63
2021/01/01 10:24:03;;;;;;;18.80;13.68;;;;;;;3.90;74.33;98084.97;4972106;28;20055;-62
2021/01/01 10:26:29;;;;;;;17.55;12.63;;;;;;;3.96;74.67;98086.94;4972767;28;20047;-63
2021/01/01 10:28:56;;;;;;;19.98;13.23;;;;;;;3.95;74.87;98087.91;4973451;28;20047;-63
2021/01/01 10:31:24;;;;;;;18.55;13.50;;;;;;;3.98;74.90;98086.75;4973601;28;20097;-63
2021/01/01 10:33:50;;;;;;;17.83;12.70;;;;;;;4.05;74.75;98084.28;4973764;28;20051;-63
2021/01/01 10:36:17;;;;;;;18.13;13.55;;;;;;;4.11;74.70;98091.44;4972869;28;20050;-63
2021/01/01 10:38:44;;;;;;;15.95;12.43;;;;;;;4.14;74.52;98083.28;4973182;28;20051;-63
2021/01/01 10:41:13;;;;;;;16.95;12.07;;;;;;;4.18;74.41;98088.00;4973388;28;20051;-64
2021/01/01 10:43:40;;;;;;;16.42;12.40;;;;;;;4.16;74.29;98089.13;4973148;28;20051;-63
2021/01/01 10:46:07;;;;;;;16.58;11.73;;;;;;;4.16;74.38;98082.13;4972664;28;20053;-63
2021/01/01 10:48:34;;;;;;;16.50;11.65;;;;;;;4.10;74.40;98081.97;4971850;28;20677;-63
2021/01/01 10:51:00;;;;;;;18.45;12.40;;;;;;;4.13;74.41;98090.31;4973006;28;20051;-64
2021/01/01 10:53:27;;;;;;;17.58;12.75;;;;;;;4.15;74.27;98084.91;4972933;28;20046;-63
2021/01/01 10:55:54;;;;;;;15.25;11.70;;;;;;;4.22;74.22;98081.44;4971408;28;20079;-64
2021/01/01 10:58:25;;;;;;;17.58;12.50;;;;;;;4.23;74.10;98080.44;4973165;28;20061;-63
2021/01/01 11:00:52;;;;;;;16.70;12.00;;;;;;;4.23;73.93;98085.69;4976793;28;20047;-64
2021/01/01 11:03:18;;;;;;;14.18;10.45;;;;;;;4.23;74.09;98080.44;4976584;28;20401;-62
2021/01/01 11:05:46;;;;;;;14.45;10.90;;;;;;;4.15;73.72;98083.09;4976154;28;20039;-62
2021/01/01 11:08:13;;;;;;;17.30;13.23;;;;;;;4.23;74.08;98075.22;4976698;28;20050;-62
2021/01/01 11:10:39;;;;;;;20.77;12.40;;;;;;;4.34;74.13;98078.47;4975216;28;20404;-62
2021/01/01 11:13:07;;;;;;;16.63;11.98;;;;;;;4.37;73.75;98073.69;4976356;28;20469;-62
2021/01/01 12:20:05;;;;;;;14.15;10.57;;;;;;;4.31;74.01;98058.66;4975089;28;20046;-63
2021/01/01 12:22:40;;;;;;;17.02;11.32;;;;;;;4.30;73.89;98058.84;4975032;28;20043;-62
2021/01/01 12:25:08;;;;;;;13.15;10.38;;;;;;;4.31;73.96;98057.84;4974773;28;20067;-62
2021/01/01 12:27:36;;;;;;;16.02;10.80;;;;;;;4.33;73.90;98061.94;4975094;28;20046;-63
2021/01/01 12:30:04;;;;;;;17.15;10.82;;;;;;;4.37;73.85;98060.63;4975070;28;20058;-63
2021/01/01 12:32:32;;;;;;;19.85;10.65;;;;;;;4.41;73.91;98063.72;4974898;28;20043;-63
2021/01/01 12:34:59;;;;;;;12.38;9.82;;;;;;;4.36;73.48;98066.81;4974825;28;20057;-63
2021/01/01 12:37:26;;;;;;;14.30;10.05;;;;;;;4.25;73.66;98056.75;4975169;28;20143;-63
2021/01/01 12:39:53;;;;;;;13.32;9.82;;;;;;;4.27;73.54;98065.22;4974833;28;20043;-62
2021/01/01 12:42:20;;;;;;;14.57;11.02;;;;;;;4.27;73.58;98069.66;4974911;28;20038;-62